Home > Products > Valid Products > TAF

000
FTUS43 KAPX 281938 CCA
TAFPLN
TAF COR
KPLN 281938Z 2818/2918 27007KT P6SM SKC
     FM290000 VRB03KT P6SM SCT250
     FM290600 20005KT P6SM BKN250 WS010/21038KT
     FM291200 20012G18KT P6SM BKN100 OVC250
     FM291700 20020G30KT 5SM -SHSN OVC025=



000
FTUS43 KAPX 281938 CCA
TAFAPN
TAF COR
KAPN 281938Z 2818/2918 31007KT P6SM SKC
     FM290000 VRB04KT P6SM SCT250
     FM291300 20012G18KT P6SM BKN100 OVC250
     FM291600 20018G28KT P6SM OVC060=



000
FTUS43 KAPX 281938 CCA
TAFTVC
TAF COR
KTVC 281938Z 2818/2918 28006KT P6SM SKC
     FM290000 VRB04KT P6SM SCT250
     FM290600 19005KT P6SM BKN250 WS010/20035KT
     FM291200 20012G18KT P6SM BKN100 OVC250
     FM291700 20020G30KT 5SM -SHRASN OVC025=



000
FTUS43 KAPX 281938 CCA
TAFTVC
TAF COR
KTVC 281938Z 2818/2918 28006KT P6SM SKC
     FM290000 VRB04KT P6SM SCT250
     FM290600 19005KT P6SM BKN250 WS010/20035KT
     FM291200 20012G18KT P6SM BKN100 OVC250
     FM291700 20020G30KT 5SM -SHRASN OVC025=



000
FTUS43 KAPX 281938 CCA
TAFAPN
TAF COR
KAPN 281938Z 2818/2918 31007KT P6SM SKC
     FM290000 VRB04KT P6SM SCT250
     FM291300 20012G18KT P6SM BKN100 OVC250
     FM291600 20018G28KT P6SM OVC060=



000
FTUS43 KAPX 281938 CCA
TAFPLN
TAF COR
KPLN 281938Z 2818/2918 27007KT P6SM SKC
     FM290000 VRB03KT P6SM SCT250
     FM290600 20005KT P6SM BKN250 WS010/21038KT
     FM291200 20012G18KT P6SM BKN100 OVC250
     FM291700 20020G30KT 5SM -SHSN OVC025=



000
FTUS43 KAPX 281856
TAFTVC
TAF
KTVC 281856Z 2900/2924 28006KT P6SM SKC
     FM290100 VRB04KT P6SM SCT250
     FM290600 19005KT P6SM BKN250 WS010/20035KT
     FM291200 20012G18KT P6SM BKN100 OVC250
     FM291700 20020G30KT 5SM -SHRASN OVC025=



000
FTUS43 KAPX 281856
TAFAPN
TAF
KAPN 281856Z 2900/2924 31007KT P6SM SKC
     FM290100 VRB04KT P6SM SCT250
     FM291300 20012G18KT P6SM BKN100 OVC250
     FM291600 20018G28KT P6SM OVC060=



000
FTUS43 KAPX 281856
TAFPLN
TAF
KPLN 281856Z 2900/2924 27007KT P6SM SKC
     FM290100 VRB03KT P6SM SCT250
     FM290600 20005KT P6SM BKN250 WS010/21038KT
     FM291200 20012G18KT P6SM BKN100 OVC250
     FM291700 20020G30KT 5SM -SHSN OVC025=



000
FTUS43 KAPX 281856
TAFTVC
TAF
KTVC 281856Z 2900/2924 28006KT P6SM SKC
     FM290100 VRB04KT P6SM SCT250
     FM290600 19005KT P6SM BKN250 WS010/20035KT
     FM291200 20012G18KT P6SM BKN100 OVC250
     FM291700 20020G30KT 5SM -SHRASN OVC025=



000
FTUS43 KAPX 281856
TAFAPN
TAF
KAPN 281856Z 2900/2924 31007KT P6SM SKC
     FM290100 VRB04KT P6SM SCT250
     FM291300 20012G18KT P6SM BKN100 OVC250
     FM291600 20018G28KT P6SM OVC060=



000
FTUS43 KAPX 281856
TAFPLN
TAF
KPLN 281856Z 2900/2924 27007KT P6SM SKC
     FM290100 VRB03KT P6SM SCT250
     FM290600 20005KT P6SM BKN250 WS010/21038KT
     FM291200 20012G18KT P6SM BKN100 OVC250
     FM291700 20020G30KT 5SM -SHSN OVC025=



000
FTUS43 KAPX 281120
TAFPLN
TAF
KPLN 281120Z 2812/2912 27007KT P6SM SKC
     FM290000 VRB03KT P6SM SCT250
     FM290600 20005KT P6SM BKN250 WS010/21038KT=



000
FTUS43 KAPX 281120
TAFTVC
TAF
KTVC 281120Z 2812/2912 28006KT P6SM SKC
     FM290000 VRB04KT P6SM SCT250
     FM290600 19005KT P6SM BKN250 WS010/20035KT=



000
FTUS43 KAPX 281120
TAFAPN
TAF
KAPN 281120Z 2812/2912 31007KT P6SM SKC
     FM290000 VRB04KT P6SM SCT250=



000
FTUS43 KAPX 281120
TAFTVC
TAF
KTVC 281120Z 2812/2912 28006KT P6SM SKC
     FM290000 VRB04KT P6SM SCT250
     FM290600 19005KT P6SM BKN250 WS010/20035KT=



000
FTUS43 KAPX 281120
TAFPLN
TAF
KPLN 281120Z 2812/2912 27007KT P6SM SKC
     FM290000 VRB03KT P6SM SCT250
     FM290600 20005KT P6SM BKN250 WS010/21038KT=



000
FTUS43 KAPX 281120
TAFAPN
TAF
KAPN 281120Z 2812/2912 31007KT P6SM SKC
     FM290000 VRB04KT P6SM SCT250=



000
FTUS43 KAPX 280520
TAFTVC
TAF
KTVC 280520Z 2806/2906 VRB04KT P6SM SKC
     FM281500 27007KT P6SM SKC
     FM290000 VRB03KT P6SM SKC=



000
FTUS43 KAPX 280520
TAFPLN
TAF
KPLN 280520Z 2806/2906 VRB03KT P6SM SKC
     FM281500 27007KT P6SM SKC
     FM290000 VRB03KT P6SM SKC=



000
FTUS43 KAPX 280520
TAFTVC
TAF
KTVC 280520Z 2806/2906 VRB04KT P6SM SKC
     FM281500 27007KT P6SM SKC
     FM290000 VRB03KT P6SM SKC=



000
FTUS43 KAPX 280520
TAFAPN
TAF
KAPN 280520Z 2806/2906 VRB03KT P6SM SKC
     FM281500 31007KT P6SM SKC
     FM290000 VRB03KT P6SM SKC=



000
FTUS43 KAPX 280520
TAFAPN
TAF
KAPN 280520Z 2806/2906 VRB03KT P6SM SKC
     FM281500 31007KT P6SM SKC
     FM290000 VRB03KT P6SM SKC=



000
FTUS43 KAPX 280520
TAFPLN
TAF
KPLN 280520Z 2806/2906 VRB03KT P6SM SKC
     FM281500 27007KT P6SM SKC
     FM290000 VRB03KT P6SM SKC=



000
FTUS43 KAPX 272320
TAFAPN
TAF
KAPN 272320Z 2800/2824 34005KT P6SM SKC
     FM281400 31007KT P6SM SKC=



000
FTUS43 KAPX 272320
TAFTVC
TAF
KTVC 272320Z 2800/2824 01005KT P6SM SKC
     FM281400 29006KT P6SM SKC=



000
FTUS43 KAPX 272320
TAFPLN
TAF
KPLN 272320Z 2800/2824 34005KT P6SM SKC
     FM281400 27008KT P6SM SKC=



000
FTUS43 KAPX 272320
TAFTVC
TAF
KTVC 272320Z 2800/2824 01005KT P6SM SKC
     FM281400 29006KT P6SM SKC=



000
FTUS43 KAPX 272320
TAFPLN
TAF
KPLN 272320Z 2800/2824 34005KT P6SM SKC
     FM281400 27008KT P6SM SKC=



000
FTUS43 KAPX 272320
TAFAPN
TAF
KAPN 272320Z 2800/2824 34005KT P6SM SKC
     FM281400 31007KT P6SM SKC=



000
FTUS43 KAPX 271729
TAFTVC
TAF
KTVC 271729Z 2718/2818 36010G15KT P6SM BKN040
     FM280000 36005KT P6SM FEW040
     FM281400 26006KT P6SM SKC=



000
FTUS43 KAPX 271729
TAFAPN
TAF
KAPN 271729Z 2718/2818 34012G18KT P6SM VCSH SCT025 OVC040
      TEMPO 2718/2721 OVC025
     FM272100 35011G18KT P6SM SCT040
     FM280000 35005KT P6SM FEW040
     FM281400 26006KT P6SM SKC=



000
FTUS43 KAPX 271729
TAFPLN
TAF
KPLN 271729Z 2718/2818 35010G16KT P6SM SKC
     FM280000 34004KT P6SM SKC
     FM281400 26006KT P6SM SKC=



000
FTUS43 KAPX 271729
TAFAPN
TAF
KAPN 271729Z 2718/2818 34012G18KT P6SM VCSH SCT025 OVC040
      TEMPO 2718/2721 OVC025
     FM272100 35011G18KT P6SM SCT040
     FM280000 35005KT P6SM FEW040
     FM281400 26006KT P6SM SKC=



000
FTUS43 KAPX 271729
TAFPLN
TAF
KPLN 271729Z 2718/2818 35010G16KT P6SM SKC
     FM280000 34004KT P6SM SKC
     FM281400 26006KT P6SM SKC=



000
FTUS43 KAPX 271729
TAFTVC
TAF
KTVC 271729Z 2718/2818 36010G15KT P6SM BKN040
     FM280000 36005KT P6SM FEW040
     FM281400 26006KT P6SM SKC=



000
FTUS43 KAPX 271448 AAB
TAFAPN
TAF AMD
KAPN 271448Z 2715/2812 36012G20KT P6SM VCSH SCT025 BKN040
      TEMPO 2715/2718 BKN025
     FM272000 35011G18KT P6SM SCT040 SCT250
     FM280000 35005KT P6SM SCT040=



000
FTUS43 KAPX 271448 AAB
TAFAPN
TAF AMD
KAPN 271448Z 2715/2812 36012G20KT P6SM VCSH SCT025 BKN040
      TEMPO 2715/2718 BKN025
     FM272000 35011G18KT P6SM SCT040 SCT250
     FM280000 35005KT P6SM SCT040=



000
FTUS43 KAPX 271232 AAA
TAFAPN
TAF AMD
KAPN 271232Z 2713/2812 35012G20KT P6SM VCSH BKN040
     FM272000 35011G18KT P6SM SCT040 SCT250
     FM280000 35005KT P6SM SCT040=



000
FTUS43 KAPX 271232 AAA
TAFAPN
TAF AMD
KAPN 271232Z 2713/2812 35012G20KT P6SM VCSH BKN040
     FM272000 35011G18KT P6SM SCT040 SCT250
     FM280000 35005KT P6SM SCT040=



000
FTUS43 KAPX 271120
TAFPLN
TAF
KPLN 271120Z 2712/2812 34009KT P6SM SCT030
     FM271400 35010G18KT P6SM SCT040
     FM280000 34004KT P6SM FEW250=



000
FTUS43 KAPX 271120
TAFAPN
TAF
KAPN 271120Z 2712/2812 36008KT P6SM VCSH BKN025
     FM271400 35012G20KT P6SM VCSH BKN040
     FM272000 35011G18KT P6SM SCT040 SCT250
     FM280000 35005KT P6SM SCT040=



000
FTUS43 KAPX 271120
TAFTVC
TAF
KTVC 271120Z 2712/2812 35011G19KT P6SM SCT040
     FM280000 36005KT P6SM FEW250=



000
FTUS43 KAPX 270520
TAFAPN
TAF
KAPN 270520Z 2706/2806 35008KT P6SM VCSH BKN025
     FM271400 35012G21KT P6SM VCSH BKN040
     FM272100 35011G20KT P6SM SCT040 SCT250
     FM280000 35007KT P6SM SCT040=



000
FTUS43 KAPX 270520
TAFTVC
TAF
KTVC 270520Z 2706/2806 34011G19KT P6SM VCSH BKN030
     FM271400 35011G20KT P6SM SCT040
     FM280000 35006KT P6SM FEW250=



000
FTUS43 KAPX 270520
TAFPLN
TAF
KPLN 270520Z 2706/2806 34009KT P6SM SCT030
      TEMPO 2706/2708 BKN030
     FM271400 35010G19KT P6SM SCT040
     FM280000 34004KT P6SM FEW250=



000
FTUS43 KAPX 270520
TAFTVC
TAF
KTVC 270520Z 2706/2806 34011G19KT P6SM VCSH BKN030
     FM271400 35011G20KT P6SM SCT040
     FM280000 35006KT P6SM FEW250=



000
FTUS43 KAPX 270520
TAFAPN
TAF
KAPN 270520Z 2706/2806 35008KT P6SM VCSH BKN025
     FM271400 35012G21KT P6SM VCSH BKN040
     FM272100 35011G20KT P6SM SCT040 SCT250
     FM280000 35007KT P6SM SCT040=



000
FTUS43 KAPX 270520
TAFPLN
TAF
KPLN 270520Z 2706/2806 34009KT P6SM SCT030
      TEMPO 2706/2708 BKN030
     FM271400 35010G19KT P6SM SCT040
     FM280000 34004KT P6SM FEW250=



000
FTUS43 KAPX 270135 AAA
TAFTVC
TAF AMD
KTVC 270135Z 2702/2724 33011G20KT 6SM -SHSN SCT018 OVC025
      TEMPO 2702/2704 3SM -SHSN BKN018
     FM271400 35011G20KT P6SM SCT040=



000
FTUS43 KAPX 270135 AAA
TAFPLN
TAF AMD
KPLN 270135Z 2702/2724 32012G21KT P6SM VCSH OVC018
      TEMPO 2702/2704 2SM -SHSN
     FM270800 34008KT P6SM SCT030
     FM271400 34012G21KT P6SM SCT040=



000
FTUS43 KAPX 262320
TAFTVC
TAF
KTVC 262320Z 2700/2724 33009KT 6SM -SHSN SCT018 OVC025
      TEMPO 2700/2704 3SM -SHSN BKN018
     FM271400 35011G20KT P6SM SCT040=



000
FTUS43 KAPX 262320
TAFPLN
TAF
KPLN 262320Z 2700/2724 32012G21KT P6SM VCSH OVC018
      TEMPO 2700/2704 3SM -SHSN
     FM270800 34008KT P6SM SCT030
     FM271400 34012G21KT P6SM SCT040=



000
FTUS43 KAPX 262320
TAFAPN
TAF
KAPN 262320Z 2700/2724 30009KT P6SM VCSH OVC018
     FM270600 35008KT P6SM VCSH OVC025
     FM271400 35012G21KT P6SM VCSH OVC035=



000
FTUS43 KAPX 262320
TAFPLN
TAF
KPLN 262320Z 2700/2724 32012G21KT P6SM VCSH OVC018
      TEMPO 2700/2704 3SM -SHSN
     FM270800 34008KT P6SM SCT030
     FM271400 34012G21KT P6SM SCT040=



000
FTUS43 KAPX 262320
TAFTVC
TAF
KTVC 262320Z 2700/2724 33009KT 6SM -SHSN SCT018 OVC025
      TEMPO 2700/2704 3SM -SHSN BKN018
     FM271400 35011G20KT P6SM SCT040=



000
FTUS43 KAPX 262320
TAFAPN
TAF
KAPN 262320Z 2700/2724 30009KT P6SM VCSH OVC018
     FM270600 35008KT P6SM VCSH OVC025
     FM271400 35012G21KT P6SM VCSH OVC035=



000
FTUS43 KAPX 262027 AAA
TAFTVC
TAF AMD
KTVC 262027Z 2620/2718 33010G16KT 6SM -SHSN OVC018
     FM271100 34010G16KT P6SM BKN028
     FM271400 36012G20KT P6SM VCSH BKN035=



000
FTUS43 KAPX 262027 AAA
TAFPLN
TAF AMD
KPLN 262027Z 2620/2718 32010G16KT P6SM VCSH BKN020
     FM270800 35007G15KT P6SM SCT028
     FM271400 36012G20KT P6SM SCT035=



000
FTUS43 KAPX 262027 AAA
TAFPLN
TAF AMD
KPLN 262027Z 2620/2718 32010G16KT P6SM VCSH BKN020
     FM270800 35007G15KT P6SM SCT028
     FM271400 36012G20KT P6SM SCT035=



000
FTUS43 KAPX 262027 AAA
TAFTVC
TAF AMD
KTVC 262027Z 2620/2718 33010G16KT 6SM -SHSN OVC018
     FM271100 34010G16KT P6SM BKN028
     FM271400 36012G20KT P6SM VCSH BKN035=



000
FTUS43 KAPX 261821 AAA
TAFAPN
TAF AMD
KAPN 261821Z 2618/2718 29008G14KT P6SM OVC035
     FM262200 31009G18KT 3SM -SN OVC018
     FM270100 33008KT P6SM VCSH OVC028
     FM270700 35011KT P6SM VCSH OVC028
     FM271400 01014G22KT P6SM VCSH BKN035=



000
FTUS43 KAPX 261821 AAA
TAFAPN
TAF AMD
KAPN 261821Z 2618/2718 29008G14KT P6SM OVC035
     FM262200 31009G18KT 3SM -SN OVC018
     FM270100 33008KT P6SM VCSH OVC028
     FM270700 35011KT P6SM VCSH OVC028
     FM271400 01014G22KT P6SM VCSH BKN035=



000
FTUS43 KAPX 261740
TAFPLN
TAF
KPLN 261740Z 2618/2718 29012G17KT 3SM -SN OVC015
      TEMPO 2618/2619 2SM -SHSN
     FM270300 32010G16KT P6SM BKN022
     FM270800 35007G15KT P6SM SCT028
     FM271400 36012G20KT P6SM SCT035=



000
FTUS43 KAPX 261740
TAFPLN
TAF
KPLN 261740Z 2618/2718 29012G17KT 3SM -SN OVC015
      TEMPO 2618/2619 2SM -SHSN
     FM270300 32010G16KT P6SM BKN022
     FM270800 35007G15KT P6SM SCT028
     FM271400 36012G20KT P6SM SCT035=



000
FTUS43 KAPX 261740
TAFAPN
TAF
KAPN 261740Z 2618/2718 30007KT P6SM OVC025
     FM262200 31009G18KT 3SM -SN OVC018
     FM270100 33008KT P6SM VCSH OVC028
     FM270700 35011KT P6SM VCSH OVC028
     FM271400 01014G22KT P6SM VCSH BKN035=



000
FTUS43 KAPX 261740
TAFAPN
TAF
KAPN 261740Z 2618/2718 30007KT P6SM OVC025
     FM262200 31009G18KT 3SM -SN OVC018
     FM270100 33008KT P6SM VCSH OVC028
     FM270700 35011KT P6SM VCSH OVC028
     FM271400 01014G22KT P6SM VCSH BKN035=



000
FTUS43 KAPX 261740
TAFTVC
TAF
KTVC 261740Z 2618/2718 31010G15KT 5SM VCSH OVC015
      TEMPO 2618/2621 2SM -SHSN
     FM262100 31010G16KT 6SM -SHSN OVC026
     FM271100 34010G16KT P6SM BKN028
     FM271400 36012G20KT P6SM VCSH BKN035=



000
FTUS43 KAPX 261740
TAFTVC
TAF
KTVC 261740Z 2618/2718 31010G15KT 5SM VCSH OVC015
      TEMPO 2618/2621 2SM -SHSN
     FM262100 31010G16KT 6SM -SHSN OVC026
     FM271100 34010G16KT P6SM BKN028
     FM271400 36012G20KT P6SM VCSH BKN035=



000
FTUS43 KAPX 261545 AAB
TAFPLN
TAF AMD
KPLN 261545Z 2616/2712 29012G17KT 3SM -SN OVC015
      TEMPO 2616/2620 2SM -SHSN
     FM270300 32010G16KT P6SM BKN022
     FM270800 35007G15KT P6SM SCT028=



000
FTUS43 KAPX 261545 AAB
TAFPLN
TAF AMD
KPLN 261545Z 2616/2712 29012G17KT 3SM -SN OVC015
      TEMPO 2616/2620 2SM -SHSN
     FM270300 32010G16KT P6SM BKN022
     FM270800 35007G15KT P6SM SCT028=



000
FTUS43 KAPX 261301 AAA
TAFPLN
TAF AMD
KPLN 261301Z 2613/2712 26009KT P6SM OVC025
     FM261700 29011G22KT 2SM -SN OVC015
     FM270300 32010G18KT P6SM BKN022
     FM270800 35007G15KT P6SM SCT028=



000
FTUS43 KAPX 261127
TAFPLN
TAF
KPLN 261127Z 2612/2712 24010G16KT P6SM BKN035
     FM261400 29009KT P6SM OVC025
     FM261700 29011G22KT 2SM -SN OVC015
     FM270300 32010G18KT P6SM BKN022
     FM270800 35007G15KT P6SM SCT028=



000
FTUS43 KAPX 261127
TAFTVC
TAF
KTVC 261127Z 2612/2712 27007KT P6SM OVC040
     FM261400 29009KT P6SM BKN028 OVC040
     FM261800 31010G18KT P6SM VCSH OVC022
     FM262100 31011G20KT 6SM -SHSN OVC026
     FM271100 34011G20KT P6SM SCT028=



000
FTUS43 KAPX 261127
TAFAPN
TAF
KAPN 261127Z 2612/2712 23004KT P6SM OVC035
     FM261500 28007KT P6SM OVC035
     FM261800 30007KT P6SM OVC025
     FM262200 31009G18KT 2SM -SN OVC018
     FM270700 35011KT P6SM OVC028=



000
FTUS43 KAPX 261127
TAFTVC
TAF
KTVC 261127Z 2612/2712 27007KT P6SM OVC040
     FM261400 29009KT P6SM BKN028 OVC040
     FM261800 31010G18KT P6SM VCSH OVC022
     FM262100 31011G20KT 6SM -SHSN OVC026
     FM271100 34011G20KT P6SM SCT028=



000
FTUS43 KAPX 261127
TAFPLN
TAF
KPLN 261127Z 2612/2712 24010G16KT P6SM BKN035
     FM261400 29009KT P6SM OVC025
     FM261700 29011G22KT 2SM -SN OVC015
     FM270300 32010G18KT P6SM BKN022
     FM270800 35007G15KT P6SM SCT028=



000
FTUS43 KAPX 261127
TAFAPN
TAF
KAPN 261127Z 2612/2712 23004KT P6SM OVC035
     FM261500 28007KT P6SM OVC035
     FM261800 30007KT P6SM OVC025
     FM262200 31009G18KT 2SM -SN OVC018
     FM270700 35011KT P6SM OVC028=



000
FTUS43 KAPX 260933 AAB
TAFAPN
TAF AMD
KAPN 260933Z 2610/2706 21004KT P6SM OVC035
     FM261500 26007KT P6SM OVC035
     FM261800 30007KT P6SM OVC028
     FM262200 31007KT 2SM -SN OVC022=



000
FTUS43 KAPX 260933 AAB
TAFAPN
TAF AMD
KAPN 260933Z 2610/2706 21004KT P6SM OVC035
     FM261500 26007KT P6SM OVC035
     FM261800 30007KT P6SM OVC028
     FM262200 31007KT 2SM -SN OVC022=



000
FTUS43 KAPX 260933 AAA
TAFTVC
TAF AMD
KTVC 260933Z 2610/2706 25006KT P6SM OVC040
     FM261400 29009KT P6SM BKN028 OVC040
     FM261800 31010G18KT P6SM OVC022
     FM262100 31011G20KT P6SM VCSH OVC026=



000
FTUS43 KAPX 260933 AAA
TAFTVC
TAF AMD
KTVC 260933Z 2610/2706 25006KT P6SM OVC040
     FM261400 29009KT P6SM BKN028 OVC040
     FM261800 31010G18KT P6SM OVC022
     FM262100 31011G20KT P6SM VCSH OVC026=



000
FTUS43 KAPX 260920 AAA
TAFAPN
TAF AMD
KAPN 260920Z 2609/2706 21004KT P6SM OVC035
     FM261500 26007KT P6SM OVC035
     FM261800 30007KT P6SM OVC028
     FM262200 31007KT 2SM -SN OVC022=



000
FTUS43 KAPX 260920 AAA
TAFAPN
TAF AMD
KAPN 260920Z 2609/2706 21004KT P6SM OVC035
     FM261500 26007KT P6SM OVC035
     FM261800 30007KT P6SM OVC028
     FM262200 31007KT 2SM -SN OVC022=



000
FTUS43 KAPX 260919 AAA
TAFPLN
TAF AMD
KPLN 260919Z 2609/2706 24010G16KT P6SM BKN035
     FM261400 29009KT P6SM OVC025
     FM261700 29011G22KT 2SM -SN OVC015
     FM270400 32010KT P6SM BKN020=



000
FTUS43 KAPX 260919 AAA
TAFPLN
TAF AMD
KPLN 260919Z 2609/2706 24010G16KT P6SM BKN035
     FM261400 29009KT P6SM OVC025
     FM261700 29011G22KT 2SM -SN OVC015
     FM270400 32010KT P6SM BKN020=



000
FTUS43 KAPX 260541
TAFAPN
TAF
KAPN 260541Z 2606/2706 24010G17KT P6SM SCT040
     FM261500 27007KT P6SM SCT028 BKN035
     FM261800 30007KT P6SM OVC028
     FM262200 31007KT 2SM -SN OVC022=



000
FTUS43 KAPX 260541
TAFTVC
TAF
KTVC 260541Z 2606/2706 23006KT P6SM BKN040
     FM260800 23007KT P6SM SCT040
     FM261400 29009KT P6SM BKN028 OVC040
     FM261800 31010G18KT P6SM OVC022
     FM262100 31011G20KT P6SM VCSH OVC026=



000
FTUS43 KAPX 260541
TAFPLN
TAF
KPLN 260541Z 2606/2706 24013G23KT P6SM OVC035
     FM260800 26008G16KT P6SM BKN028
     FM261400 29009KT P6SM OVC025
     FM261700 29011G22KT 2SM -SN OVC015
     FM270400 32010KT P6SM BKN020=



000
FTUS43 KAPX 260541
TAFAPN
TAF
KAPN 260541Z 2606/2706 24010G17KT P6SM SCT040
     FM261500 27007KT P6SM SCT028 BKN035
     FM261800 30007KT P6SM OVC028
     FM262200 31007KT 2SM -SN OVC022=



000
FTUS43 KAPX 260541
TAFPLN
TAF
KPLN 260541Z 2606/2706 24013G23KT P6SM OVC035
     FM260800 26008G16KT P6SM BKN028
     FM261400 29009KT P6SM OVC025
     FM261700 29011G22KT 2SM -SN OVC015
     FM270400 32010KT P6SM BKN020=



000
FTUS43 KAPX 260541
TAFTVC
TAF
KTVC 260541Z 2606/2706 23006KT P6SM BKN040
     FM260800 23007KT P6SM SCT040
     FM261400 29009KT P6SM BKN028 OVC040
     FM261800 31010G18KT P6SM OVC022
     FM262100 31011G20KT P6SM VCSH OVC026=



000
FTUS43 KAPX 260218 AAA
TAFTVC
TAF AMD
KTVC 260218Z 2602/2624 24011G20KT P6SM OVC035
     FM260500 25005KT P6SM OVC030
     FM261400 29009KT P6SM OVC028
     FM261800 31011G20KT P6SM OVC028
     FM262100 31011G20KT 5SM -SN OVC026=



000
FTUS43 KAPX 260218 AAA
TAFPLN
TAF AMD
KPLN 260218Z 2602/2624 24013G23KT P6SM OVC035
     FM260700 26008KT P6SM OVC029
     FM261300 29009KT P6SM OVC015
     FM261700 29011G20KT 3SM -SN OVC012=



000
FTUS43 KAPX 260217 AAA
TAFAPN
TAF AMD
KAPN 260217Z 2602/2624 25012G13KT P6SM OVC035
     FM260400 24006KT P6SM OVC030
     FM261600 28010G17KT P6SM OVC025=



000
FTUS43 KAPX 252341
TAFAPN
TAF
KAPN 252341Z 2600/2624 25012G23KT P6SM BKN025 OVC035
     FM260400 24006KT P6SM OVC025
     FM261600 28010G17KT P6SM OVC025=



000
FTUS43 KAPX 252341
TAFPLN
TAF
KPLN 252341Z 2600/2624 25013G23KT P6SM BKN015 OVC022
     FM260700 26008KT P6SM OVC025
     FM261300 29009KT P6SM OVC015
     FM261700 29011G20KT 3SM -SN OVC012=



000
FTUS43 KAPX 252341
TAFTVC
TAF
KTVC 252341Z 2600/2624 24011G20KT P6SM SCT020 OVC030
     FM260400 25005KT P6SM OVC030
     FM261400 29009KT P6SM OVC028
     FM261800 31011G20KT P6SM OVC028
     FM262100 31011G20KT 5SM -SN OVC026=



000
FTUS43 KAPX 252341
TAFAPN
TAF
KAPN 252341Z 2600/2624 25012G23KT P6SM BKN025 OVC035
     FM260400 24006KT P6SM OVC025
     FM261600 28010G17KT P6SM OVC025=



000
FTUS43 KAPX 252341
TAFTVC
TAF
KTVC 252341Z 2600/2624 24011G20KT P6SM SCT020 OVC030
     FM260400 25005KT P6SM OVC030
     FM261400 29009KT P6SM OVC028
     FM261800 31011G20KT P6SM OVC028
     FM262100 31011G20KT 5SM -SN OVC026=



000
FTUS43 KAPX 252341
TAFPLN
TAF
KPLN 252341Z 2600/2624 25013G23KT P6SM BKN015 OVC022
     FM260700 26008KT P6SM OVC025
     FM261300 29009KT P6SM OVC015
     FM261700 29011G20KT 3SM -SN OVC012=



    US Dept of Commerce
    National Oceanic and Atmospheric Administration
    National Weather Service
    1325 East West Highway
    Silver Spring, MD 20910
    Page Author: NWS Internet Services Team
Disclaimer
Information Quality
Credits
Glossary
Privacy Policy
Freedom of Information Act (FOIA)
About Us
Career Opportunities